Orange, CA

8:04 AM PST on March 06, 2015 (GMT -0800)
Old Town Orange | Change Station
CLOSE
Current Station
Personal Weather Station
Location: Orange, CA
Elevation: 213 ft
Nearby Weather Stations
Active Advisory: Wind Advisory

Elev 213 ft 33.78 °N, 117.85 °W | Updated 16 seconds ago

Clear
Clear
68.5 °F
Feels Like 68.5 °F
N
2.0
Wind Variable Wind from NNE
Gusts 4.0 mph

Today
High -- | Low -- °F
--% Chance of Precip.
Yesterday
High -- | Low -- °F
Precip. -- in
6:13 AM 5:51 PM
Full, 99% visible
Pressure 30.13 in
Visibility 10.0 miles
Clouds Clear
Dew Point 23 °F
Humidity 18%
Rainfall in
Snow Depth Not available.
UV 1 out of 12
Pollen 9.20 out of 12
Air Quality Not available.
Flu Activity Not available.
METAR KSNA 061553Z 00000KT 10SM CLR 17/01 A3013 RMK AO2 SLP201 T01720011

More Conditions Fewer Conditions

Pressure 30.13 in
Visibility 10.0 miles
Clouds Clear
Dew Point 23 °F
Humidity 18%
Rainfall in
Snow Depth Not available.
UV 1 out of 12
Pollen 9.20 out of 12
Air Quality Not available.
Flu Activity Not available.
METAR KSNA 061553Z 00000KT 10SM CLR 17/01 A3013 RMK AO2 SLP201 T01720011

More Conditions Fewer Conditions

10-Day Weather Forecast

Almanac

Astronomy

Mar. 06, 2015 Rise Set
Actual Time
Civil Twilight
Nautical Twilight
Astronomical Twilight
Moon
Length of Visible Light
Length of Day
Tomorrow will be .
, % of the Moon is Illuminated

Today's Extremes

State Highs State Lows

Community

WunderPhotos

Upload Photos

1,803,327 photos uploaded!

WunderBlogs® & News

Nearby

Air Quality

  Air Quality AQ Index Pollutant
Not available.

Snow Depth

Station Depth Elevation

Earthquake Activity

City Distance Mag. Time & Date
Minimum magnitude displayed is 2.5.

Coastal Water Temperatures

Place Temperature

Nearby Weather Stations

Wind Advisory
Statement as of 3:05 AM PST on March 06, 2015

... Wind Advisory now in effect until noon PST Saturday...

* winds... areas of northeast to east winds 20 to 30 mph with gusts
to 50 mph.

* Location... strongest winds below passes and canyons and near
coastal mountain slopes.

* Timing... strongest winds this morning and again late tonight
through Saturday morning.

* Impacts... strong winds will make driving difficult for high
profile vehicles.

Precautionary/preparedness actions...

A Wind Advisory means that winds of 35 mph are expected. Winds
this strong can make driving difficult... especially for high
profile vehicles. Use extra caution.